Time;durP1;ratioP1;P1;durP2;ratioP2;P2;SDS_P1;SDS_P2;PMS_P1;PMS_P2;Temp;Humidity;BMP_temperature;BMP_pressure;BME280_temperature;BME280_humidity;BME280_pressure;Samples;Min_cycle;Max_cycle;Signal;HPM_P1;HPM_P2
2024/02/13 00:01:44;;;;;;;3.00;2.10;;;3.90;99.40;;;;;;5047892;28;20047;-73
2024/02/13 00:04:10;;;;;;;5.20;2.60;;;3.90;99.40;;;;;;5046974;28;20068;-73
2024/02/13 00:06:38;;;;;;;3.13;1.88;;;4.00;99.40;;;;;;5045264;28;20059;-73
2024/02/13 00:09:04;;;;;;;4.43;2.42;;;4.00;99.30;;;;;;5044668;28;20067;-73
2024/02/13 00:11:30;;;;;;;4.25;2.15;;;4.00;99.30;;;;;;5045165;28;20087;-73
2024/02/13 00:13:56;;;;;;;3.20;1.90;;;4.00;99.30;;;;;;5046849;28;20029;-73
2024/02/13 00:16:22;;;;;;;4.57;2.25;;;4.00;99.30;;;;;;5048347;28;20108;-73
2024/02/13 00:18:48;;;;;;;3.30;1.75;;;4.00;99.40;;;;;;5051843;28;20107;-73
2024/02/13 00:21:13;;;;;;;5.65;2.67;;;4.00;99.40;;;;;;5045589;28;20082;-73
2024/02/13 00:23:39;;;;;;;4.68;2.65;;;4.10;99.40;;;;;;5044484;28;20044;-73
2024/02/13 00:26:09;;;;;;;5.15;2.50;;;4.10;99.40;;;;;;5048428;28;20222;-73
2024/02/13 00:28:37;;;;;;;4.72;1.83;;;4.10;99.40;;;;;;5046521;28;20040;-73
2024/02/13 00:31:06;;;;;;;6.00;2.13;;;4.10;99.40;;;;;;5047333;28;20115;-73
2024/02/13 00:33:31;;;;;;;5.10;2.25;;;4.10;99.40;;;;;;5040186;28;20095;-73
2024/02/13 00:35:57;;;;;;;5.47;2.45;;;4.10;99.40;;;;;;5040019;28;20121;-73
2024/02/13 00:38:24;;;;;;;6.60;2.78;;;4.10;99.40;;;;;;5044869;28;20095;-73
2024/02/13 00:40:49;;;;;;;5.40;2.35;;;4.10;99.40;;;;;;5049711;28;20101;-73
2024/02/13 00:43:19;;;;;;;6.18;2.88;;;4.10;99.40;;;;;;5049601;28;20085;-73
2024/02/13 00:45:47;;;;;;;7.57;3.63;;;4.00;99.40;;;;;;5039704;28;20347;-73
2024/02/13 00:48:13;;;;;;;10.18;2.97;;;4.10;99.50;;;;;;5047236;28;20037;-73
2024/02/13 00:50:38;;;;;;;4.97;2.08;;;4.00;99.50;;;;;;5040178;28;20049;-73
2024/02/13 00:53:05;;;;;;;5.00;2.70;;;4.10;99.40;;;;;;5045467;28;20099;-73
2024/02/13 00:55:31;;;;;;;5.22;2.28;;;4.10;99.50;;;;;;5050564;28;20040;-73
2024/02/13 00:57:57;;;;;;;4.88;2.70;;;4.00;99.50;;;;;;5048992;28;20029;-72
2024/02/13 01:00:24;;;;;;;4.80;2.70;;;4.00;99.50;;;;;;5044131;28;20029;-72
2024/02/13 01:02:50;;;;;;;5.68;3.22;;;4.00;99.40;;;;;;5045161;28;20074;-73
2024/02/13 01:05:16;;;;;;;5.13;2.47;;;3.90;99.50;;;;;;5051270;28;20044;-72
2024/02/13 01:07:42;;;;;;;4.97;2.75;;;3.90;99.50;;;;;;5047986;28;20049;-72
2024/02/13 01:10:08;;;;;;;4.30;2.47;;;3.80;99.60;;;;;;5041083;28;20377;-73
2024/02/13 01:12:34;;;;;;;5.78;2.95;;;3.80;99.60;;;;;;5050295;28;20028;-73
2024/02/13 01:15:00;;;;;;;5.20;2.90;;;3.70;99.70;;;;;;5053949;28;20063;-72
2024/02/13 01:17:28;;;;;;;4.72;2.33;;;3.60;99.70;;;;;;5046301;28;20518;-72
2024/02/13 01:19:53;;;;;;;6.70;3.03;;;3.50;99.70;;;;;;5045314;28;20163;-72
2024/02/13 01:22:19;;;;;;;7.78;2.80;;;3.40;99.80;;;;;;5043793;28;20108;-72
2024/02/13 01:24:44;;;;;;;5.90;2.40;;;3.40;99.90;;;;;;5048811;28;20096;-72
2024/02/13 01:27:10;;;;;;;6.05;2.95;;;3.30;99.90;;;;;;5046643;28;20056;-72
2024/02/13 01:29:36;;;;;;;5.07;2.78;;;3.20;99.90;;;;;;5054936;28;20146;-72
2024/02/13 01:32:05;;;;;;;5.72;2.63;;;3.10;99.90;;;;;;5048203;28;20052;-72
2024/02/13 01:34:30;;;;;;;6.45;2.72;;;3.20;99.90;;;;;;5033007;28;20062;-72
2024/02/13 01:36:59;;;;;;;6.00;3.00;;;3.10;99.90;;;;;;5044863;28;20029;-72
2024/02/13 01:39:24;;;;;;;5.05;2.80;;;3.10;99.90;;;;;;5046005;28;20128;-73
2024/02/13 01:41:51;;;;;;;6.07;2.85;;;3.10;99.90;;;;;;5042017;28;20511;-72
2024/02/13 01:44:16;;;;;;;5.72;2.83;;;3.00;99.90;;;;;;5046256;28;20680;-72
2024/02/13 01:46:42;;;;;;;6.07;3.08;;;3.00;99.90;;;;;;5046630;28;20116;-72
2024/02/13 01:49:09;;;;;;;8.65;2.40;;;3.00;99.90;;;;;;5043822;28;20528;-71
2024/02/13 01:51:37;;;;;;;7.28;3.53;;;3.00;99.90;;;;;;5047035;28;20043;-72
2024/02/13 01:54:05;;;;;;;6.03;3.50;;;3.00;99.90;;;;;;5046343;28;20029;-72
2024/02/13 01:56:33;;;;;;;5.85;2.60;;;3.10;99.90;;;;;;5044768;28;20032;-72
2024/02/13 01:58:59;;;;;;;5.38;2.63;;;3.10;99.90;;;;;;5044561;28;20292;-72
2024/02/13 02:01:27;;;;;;;7.75;3.15;;;3.10;99.90;;;;;;5047322;28;20021;-72
2024/02/13 02:03:54;;;;;;;6.57;2.75;;;3.10;99.90;;;;;;5049492;28;20028;-72
2024/02/13 02:06:20;;;;;;;6.40;3.10;;;3.20;99.90;;;;;;5044532;28;20049;-72
2024/02/13 02:08:47;;;;;;;6.63;2.97;;;3.20;99.90;;;;;;5045040;28;20033;-72
2024/02/13 02:11:12;;;;;;;7.68;3.53;;;3.20;99.90;;;;;;5038341;28;20021;-72
2024/02/13 02:13:38;;;;;;;6.78;3.15;;;3.30;99.90;;;;;;5043079;28;20055;-72
2024/02/13 02:16:06;;;;;;;6.28;3.15;;;3.30;99.90;;;;;;5036537;28;20053;-73
2024/02/13 02:18:32;;;;;;;7.07;3.38;;;3.30;99.90;;;;;;5045613;28;20075;-72
2024/02/13 02:20:57;;;;;;;6.47;2.92;;;3.40;99.90;;;;;;5043663;28;20426;-72
2024/02/13 02:23:23;;;;;;;4.68;2.45;;;3.40;99.90;;;;;;5028495;28;20067;-72
2024/02/13 02:25:50;;;;;;;6.45;3.05;;;3.40;99.90;;;;;;5037913;28;20395;-72
2024/02/13 02:28:16;;;;;;;5.25;2.70;;;3.40;99.90;;;;;;5045279;28;20077;-72
2024/02/13 02:30:42;;;;;;;6.18;3.28;;;3.50;99.90;;;;;;5045080;28;20076;-73
2024/02/13 02:33:08;;;;;;;6.43;2.80;;;3.50;99.90;;;;;;5043434;28;20029;-72
2024/02/13 02:35:34;;;;;;;4.43;2.55;;;3.60;99.90;;;;;;5039525;28;20098;-72
2024/02/13 02:38:00;;;;;;;5.50;2.65;;;3.60;99.90;;;;;;5050577;28;20059;-73
2024/02/13 02:40:26;;;;;;;4.55;2.38;;;3.60;99.90;;;;;;5043466;28;20403;-72
2024/02/13 02:42:52;;;;;;;5.43;2.47;;;3.60;99.90;;;;;;5045612;28;20112;-73
2024/02/13 02:45:18;;;;;;;3.42;2.00;;;3.60;99.90;;;;;;5042369;28;20029;-72
2024/02/13 02:47:46;;;;;;;7.88;2.75;;;3.60;99.90;;;;;;5053170;28;20040;-73
2024/02/13 02:50:12;;;;;;;5.40;2.40;;;3.60;99.90;;;;;;5048496;28;20059;-72
2024/02/13 02:52:37;;;;;;;4.20;2.05;;;3.60;99.90;;;;;;5041118;28;20094;-73
2024/02/13 02:55:05;;;;;;;3.47;1.80;;;3.60;99.90;;;;;;5043038;28;20438;-72
2024/02/13 02:57:32;;;;;;;3.03;1.95;;;3.60;99.80;;;;;;5043426;28;20033;-73
2024/02/13 02:59:57;;;;;;;3.75;1.85;;;3.60;99.70;;;;;;5045738;28;20033;-72
2024/02/13 03:02:23;;;;;;;5.05;2.30;;;3.60;99.70;;;;;;5046494;28;20363;-73
2024/02/13 03:04:49;;;;;;;4.10;1.92;;;3.50;99.70;;;;;;5045674;28;20210;-73
2024/02/13 03:07:14;;;;;;;3.28;1.52;;;3.50;99.70;;;;;;5049526;28;20037;-73
2024/02/13 03:09:40;;;;;;;3.50;1.85;;;3.50;99.80;;;;;;5047991;28;20029;-72
2024/02/13 03:12:06;;;;;;;3.78;1.77;;;3.50;99.70;;;;;;5046955;28;20481;-73
2024/02/13 03:14:31;;;;;;;3.38;1.75;;;3.50;99.70;;;;;;5047917;28;20390;-72
2024/02/13 03:16:56;;;;;;;3.53;2.00;;;3.50;99.70;;;;;;5044323;28;20439;-73
2024/02/13 03:19:22;;;;;;;3.25;1.80;;;3.50;99.80;;;;;;5048615;28;20083;-73
2024/02/13 03:21:48;;;;;;;5.03;1.73;;;3.50;99.90;;;;;;5048725;28;20029;-73
2024/02/13 03:24:14;;;;;;;5.80;2.03;;;3.60;99.80;;;;;;5047804;28;20029;-73
2024/02/13 03:26:39;;;;;;;5.72;2.40;;;3.60;99.80;;;;;;5045770;28;20041;-73
2024/02/13 03:29:05;;;;;;;3.90;1.83;;;3.60;99.80;;;;;;5047203;28;20044;-73
2024/02/13 03:31:30;;;;;;;3.80;2.20;;;3.60;99.80;;;;;;5045117;28;20220;-72
2024/02/13 03:33:56;;;;;;;5.70;2.55;;;3.60;99.80;;;;;;5044744;28;20159;-73
2024/02/13 03:36:22;;;;;;;6.28;2.50;;;3.60;99.90;;;;;;5044317;28;20094;-73
2024/02/13 03:38:53;;;;;;;5.75;2.80;;;3.60;99.90;;;;;;5049273;28;20124;-73
2024/02/13 03:41:18;;;;;;;5.70;2.40;;;3.60;99.90;;;;;;5043435;28;20097;-73
2024/02/13 03:43:44;;;;;;;6.70;2.60;;;3.60;99.90;;;;;;5047019;28;20033;-73
2024/02/13 03:46:10;;;;;;;4.30;2.17;;;3.60;99.90;;;;;;5041183;28;20443;-73
2024/02/13 03:48:36;;;;;;;3.97;2.17;;;3.60;99.90;;;;;;5048112;28;20040;-73
2024/02/13 03:51:02;;;;;;;4.40;2.42;;;3.60;99.90;;;;;;5046498;28;20451;-72
2024/02/13 03:53:28;;;;;;;5.05;2.78;;;3.60;99.90;;;;;;5044555;28;20036;-73
2024/02/13 03:55:53;;;;;;;5.45;2.65;;;3.70;99.90;;;;;;5045313;28;20431;-73
2024/02/13 03:58:19;;;;;;;4.88;2.45;;;3.60;99.90;;;;;;5047344;28;20151;-72
2024/02/13 04:00:44;;;;;;;4.22;2.30;;;3.60;99.90;;;;;;5047961;28;20336;-73
2024/02/13 04:03:11;;;;;;;4.50;2.28;;;3.60;99.90;;;;;;5044972;28;20033;-73
2024/02/13 04:05:38;;;;;;;5.13;2.80;;;3.60;99.90;;;;;;5043997;28;20029;-73
2024/02/13 04:08:06;;;;;;;4.32;2.65;;;3.60;99.90;;;;;;5046356;28;20075;-73
2024/02/13 04:10:32;;;;;;;6.88;2.65;;;3.60;99.90;;;;;;5039277;28;20044;-73
2024/02/13 04:12:58;;;;;;;7.47;2.88;;;3.50;99.90;;;;;;5041354;28;20056;-72
2024/02/13 04:15:23;;;;;;;6.25;2.50;;;3.50;99.90;;;;;;5045876;28;20053;-73
2024/02/13 04:17:50;;;;;;;3.53;2.13;;;3.50;99.90;;;;;;5047117;28;20033;-73
2024/02/13 04:20:15;;;;;;;5.70;2.28;;;3.50;99.90;;;;;;5047518;28;20436;-73
2024/02/13 04:22:42;;;;;;;7.90;2.50;;;3.40;99.90;;;;;;5045397;28;20025;-73
2024/02/13 04:25:08;;;;;;;4.85;2.17;;;3.40;99.90;;;;;;5049100;28;20102;-73
2024/02/13 04:27:35;;;;;;;5.47;2.67;;;3.40;99.90;;;;;;5046581;28;20083;-73
2024/02/13 04:30:00;;;;;;;5.53;2.83;;;3.40;99.90;;;;;;5032501;28;20047;-73
2024/02/13 04:32:26;;;;;;;4.88;2.80;;;3.30;99.90;;;;;;5045500;28;20029;-73
2024/02/13 04:34:52;;;;;;;6.95;2.83;;;3.40;99.90;;;;;;5042926;28;20339;-73
2024/02/13 04:37:17;;;;;;;7.00;3.08;;;3.40;99.90;;;;;;5050040;28;20137;-72
2024/02/13 04:39:43;;;;;;;5.40;3.10;;;3.40;99.90;;;;;;5049500;28;20083;-72
2024/02/13 04:42:11;;;;;;;6.57;3.47;;;3.40;99.90;;;;;;5046379;28;20032;-73
2024/02/13 04:44:36;;;;;;;6.47;2.75;;;3.40;99.90;;;;;;5046165;28;20025;-72
2024/02/13 04:47:02;;;;;;;5.53;2.80;;;3.40;99.90;;;;;;5045390;28;20036;-73
2024/02/13 04:49:28;;;;;;;5.00;2.45;;;3.20;99.90;;;;;;5047928;28;20039;-73
2024/02/13 04:51:54;;;;;;;5.55;3.03;;;3.30;99.90;;;;;;5042393;28;20451;-73
2024/02/13 04:54:19;;;;;;;7.15;3.35;;;3.30;99.90;;;;;;5047292;28;20041;-73
2024/02/13 04:56:45;;;;;;;5.03;2.75;;;3.20;99.90;;;;;;5040990;28;20055;-73
2024/02/13 04:59:15;;;;;;;6.47;3.00;;;3.10;99.90;;;;;;5047297;28;20029;-72
2024/02/13 05:01:43;;;;;;;5.65;2.80;;;3.20;99.90;;;;;;5044163;28;20020;-73
2024/02/13 05:09:24;;;;;;;4.63;2.53;;;3.10;99.90;;;;;;5046612;28;20387;-73
2024/02/13 05:11:50;;;;;;;5.63;2.70;;;3.10;99.90;;;;;;5042144;28;20037;-73
2024/02/13 05:14:15;;;;;;;5.57;2.90;;;3.10;99.90;;;;;;5045052;28;20033;-72
2024/02/13 05:16:43;;;;;;;8.10;3.25;;;3.10;99.90;;;;;;5045817;28;20064;-72
2024/02/13 05:19:08;;;;;;;5.47;2.80;;;3.10;99.90;;;;;;5046849;28;23527;-72
2024/02/13 05:21:35;;;;;;;7.15;3.47;;;3.10;99.90;;;;;;5045715;28;20033;-72
2024/02/13 05:24:03;;;;;;;6.65;3.42;;;3.10;99.90;;;;;;5045138;28;20033;-72
2024/02/13 05:26:29;;;;;;;7.82;3.63;;;3.00;99.90;;;;;;5043429;28;20067;-72
2024/02/13 05:28:56;;;;;;;5.50;2.97;;;2.90;99.90;;;;;;5046150;28;20427;-70
2024/02/13 05:31:22;;;;;;;8.00;3.40;;;2.90;99.90;;;;;;5040165;28;20111;-70
2024/02/13 05:33:49;;;;;;;5.43;2.85;;;3.00;99.90;;;;;;5045952;28;20088;-70
2024/02/13 05:36:16;;;;;;;7.50;3.40;;;2.90;99.90;;;;;;5043822;28;20048;-70
2024/02/13 05:38:43;;;;;;;6.00;3.35;;;2.90;99.90;;;;;;5051573;28;20036;-70
2024/02/13 05:41:09;;;;;;;7.00;3.65;;;3.00;99.90;;;;;;5058534;28;20355;-70
2024/02/13 05:43:34;;;;;;;7.10;3.33;;;3.10;99.90;;;;;;5047811;28;20128;-70
2024/02/13 05:46:00;;;;;;;8.20;4.15;;;3.10;99.90;;;;;;5031198;28;20391;-70
2024/02/13 05:48:25;;;;;;;7.07;3.78;;;3.10;99.90;;;;;;5049510;28;20493;-68
2024/02/13 05:50:51;;;;;;;8.23;4.03;;;3.10;99.90;;;;;;5042758;28;20048;-70
2024/02/13 05:53:17;;;;;;;9.70;4.40;;;3.20;99.90;;;;;;5043313;28;20436;-70
2024/02/13 05:55:43;;;;;;;8.15;4.93;;;3.20;99.90;;;;;;5044598;28;20152;-70
2024/02/13 05:58:08;;;;;;;8.40;3.95;;;3.20;99.90;;;;;;5041922;28;20277;-70
2024/02/13 06:00:34;;;;;;;9.27;3.90;;;3.10;99.90;;;;;;5040273;28;20440;-73
2024/02/13 06:03:00;;;;;;;7.95;3.95;;;3.10;99.90;;;;;;5039264;28;20033;-69
2024/02/13 06:05:27;;;;;;;6.93;3.83;;;3.10;99.90;;;;;;5045989;28;20335;-69
2024/02/13 06:07:52;;;;;;;9.55;4.38;;;3.10;99.90;;;;;;5045498;28;20044;-69
2024/02/13 06:10:18;;;;;;;11.52;4.40;;;3.10;99.90;;;;;;5041719;28;20024;-70
2024/02/13 06:12:45;;;;;;;11.15;5.20;;;3.10;99.90;;;;;;5036984;28;20108;-69
2024/02/13 06:15:11;;;;;;;8.32;4.30;;;3.10;99.90;;;;;;5046058;28;20161;-69
2024/02/13 06:17:36;;;;;;;10.43;4.30;;;3.10;99.90;;;;;;5044195;28;20569;-69
2024/02/13 06:20:05;;;;;;;10.60;4.97;;;3.10;99.90;;;;;;5045401;28;20096;-69
2024/02/13 06:22:32;;;;;;;11.25;5.20;;;3.10;99.90;;;;;;5047258;28;20069;-69
2024/02/13 06:25:00;;;;;;;9.43;4.72;;;3.00;99.90;;;;;;5042439;28;20040;-69
2024/02/13 06:27:25;;;;;;;8.23;4.82;;;3.00;99.90;;;;;;5035693;28;20183;-69
2024/02/13 06:29:51;;;;;;;12.63;6.10;;;3.00;99.90;;;;;;5044509;28;20203;-69
2024/02/13 06:32:16;;;;;;;8.60;4.97;;;2.90;99.90;;;;;;5039781;28;20380;-69
2024/02/13 06:34:42;;;;;;;9.18;4.68;;;2.90;99.90;;;;;;5039416;28;20037;-69
2024/02/13 06:37:07;;;;;;;9.93;5.25;;;2.90;99.90;;;;;;5050365;28;20048;-69
2024/02/13 06:39:33;;;;;;;10.70;5.40;;;2.90;99.90;;;;;;5048521;28;20072;-69
2024/02/13 06:41:58;;;;;;;10.73;5.85;;;3.00;99.90;;;;;;5047247;28;20041;-69
2024/02/13 06:44:24;;;;;;;8.50;4.18;;;3.00;99.90;;;;;;5045645;28;20040;-70
2024/02/13 06:46:49;;;;;;;14.35;6.47;;;3.00;99.90;;;;;;5042392;28;20061;-70
2024/02/13 06:49:15;;;;;;;9.70;4.85;;;3.00;99.90;;;;;;5045482;28;20033;-70
2024/02/13 06:51:40;;;;;;;9.77;4.72;;;3.00;99.90;;;;;;5045042;28;20029;-70
2024/02/13 06:54:06;;;;;;;11.55;5.40;;;3.00;99.90;;;;;;5043305;28;20075;-70
2024/02/13 06:56:32;;;;;;;10.73;4.97;;;2.90;99.90;;;;;;5042706;28;20025;-69
2024/02/13 06:58:57;;;;;;;11.38;5.88;;;2.90;99.90;;;;;;5047324;28;20047;-73
2024/02/13 07:01:26;;;;;;;10.90;5.32;;;2.90;99.90;;;;;;5028456;28;20035;-73
2024/02/13 07:03:52;;;;;;;9.25;4.55;;;2.80;99.90;;;;;;5045846;28;20379;-70
2024/02/13 07:06:18;;;;;;;8.15;5.22;;;2.80;99.90;;;;;;5047706;28;20104;-69
2024/02/13 07:08:44;;;;;;;10.48;5.88;;;2.80;99.90;;;;;;5049160;28;20025;-69
2024/02/13 07:11:10;;;;;;;9.80;5.38;;;2.80;99.90;;;;;;5042427;28;20064;-69
2024/02/13 07:13:36;;;;;;;10.65;4.97;;;2.80;99.90;;;;;;5049386;28;20455;-69
2024/02/13 07:16:06;;;;;;;10.95;5.72;;;2.80;99.90;;;;;;5049195;28;20080;-69
2024/02/13 07:18:33;;;;;;;12.25;5.82;;;2.80;99.90;;;;;;5049152;28;20419;-69
2024/02/13 07:21:00;;;;;;;9.55;5.35;;;2.80;99.90;;;;;;5031257;28;20056;-69
2024/02/13 07:23:25;;;;;;;9.80;5.03;;;2.80;99.90;;;;;;5049251;28;20118;-69
2024/02/13 07:25:51;;;;;;;11.77;5.55;;;2.90;99.90;;;;;;5048369;28;20033;-69
2024/02/13 07:28:17;;;;;;;9.15;5.25;;;2.90;99.90;;;;;;5048273;28;20039;-70
2024/02/13 07:30:42;;;;;;;8.82;4.40;;;2.90;99.90;;;;;;5049007;28;20029;-69
2024/02/13 07:33:07;;;;;;;10.65;5.18;;;2.90;99.90;;;;;;5048884;28;20059;-70
2024/02/13 07:35:33;;;;;;;11.35;5.28;;;2.80;99.90;;;;;;5046127;28;20037;-69
2024/02/13 07:37:59;;;;;;;12.10;5.80;;;2.90;99.90;;;;;;5031707;28;20043;-69
2024/02/13 07:40:24;;;;;;;11.32;5.60;;;2.90;99.90;;;;;;5047926;28;20597;-69
2024/02/13 07:42:50;;;;;;;14.15;6.15;;;2.90;99.90;;;;;;5047715;28;20025;-69
2024/02/13 07:45:15;;;;;;;11.85;5.78;;;3.00;99.90;;;;;;5046392;28;20025;-70
2024/02/13 07:47:41;;;;;;;11.05;5.40;;;3.00;99.90;;;;;;5048464;28;20033;-70
2024/02/13 07:50:09;;;;;;;10.60;5.78;;;3.10;99.90;;;;;;5048522;28;20112;-70
2024/02/13 07:52:35;;;;;;;10.07;5.43;;;3.10;99.90;;;;;;5049128;28;20426;-70
2024/02/13 07:55:02;;;;;;;11.13;5.50;;;3.10;99.90;;;;;;5047710;28;20501;-70
2024/02/13 07:57:29;;;;;;;12.30;5.57;;;3.10;99.90;;;;;;5044417;28;20316;-70
2024/02/13 07:59:54;;;;;;;11.73;6.03;;;3.20;99.90;;;;;;5048134;28;20087;-70
2024/02/13 08:02:22;;;;;;;13.88;6.20;;;3.40;99.90;;;;;;5048333;28;20033;-70
2024/02/13 08:04:47;;;;;;;12.88;7.65;;;3.40;99.80;;;;;;5048599;28;20060;-70
2024/02/13 08:07:13;;;;;;;14.50;6.00;;;3.50;99.70;;;;;;5048511;28;20024;-70
2024/02/13 08:09:39;;;;;;;12.82;6.40;;;3.60;99.70;;;;;;5043543;28;20033;-70
2024/02/13 08:12:06;;;;;;;11.80;5.80;;;3.60;99.40;;;;;;5049511;28;20044;-70
2024/02/13 08:14:33;;;;;;;12.02;5.38;;;3.60;99.40;;;;;;5047796;28;20063;-70
2024/02/13 08:16:58;;;;;;;11.88;5.82;;;3.80;99.30;;;;;;5053563;28;20174;-70
2024/02/13 08:19:26;;;;;;;13.13;6.13;;;3.90;99.30;;;;;;5047848;28;20486;-70
2024/02/13 08:21:51;;;;;;;14.43;6.63;;;4.00;99.00;;;;;;5054383;28;20036;-70
2024/02/13 08:24:17;;;;;;;13.57;5.70;;;4.00;98.50;;;;;;5052533;28;20447;-70
2024/02/13 08:26:43;;;;;;;10.73;5.50;;;4.10;98.70;;;;;;5055957;28;20143;-70
2024/02/13 08:29:09;;;;;;;10.98;5.53;;;4.10;98.60;;;;;;5051871;28;20117;-70
2024/02/13 08:31:35;;;;;;;13.70;6.88;;;4.10;98.50;;;;;;5055414;28;20125;-71
2024/02/13 08:34:01;;;;;;;12.63;6.57;;;4.10;98.30;;;;;;5033081;28;20056;-70
2024/02/13 08:36:28;;;;;;;10.75;5.72;;;4.00;98.20;;;;;;5038199;28;20073;-70
2024/02/13 08:38:53;;;;;;;10.75;5.47;;;4.00;98.30;;;;;;5048711;28;20032;-70
2024/02/13 08:41:19;;;;;;;10.07;5.90;;;4.10;98.20;;;;;;5048935;28;20029;-71
2024/02/13 08:43:45;;;;;;;10.80;6.00;;;4.20;98.10;;;;;;5046926;28;20148;-71
2024/02/13 08:46:13;;;;;;;11.85;5.82;;;4.30;97.40;;;;;;5047394;28;20440;-71
2024/02/13 08:48:38;;;;;;;11.45;6.63;;;4.40;97.40;;;;;;5048434;28;20432;-71
2024/02/13 08:51:05;;;;;;;13.75;7.43;;;4.50;97.20;;;;;;5048974;28;20021;-71
2024/02/13 08:53:30;;;;;;;12.55;6.15;;;4.60;97.00;;;;;;5049998;28;20025;-71
2024/02/13 08:55:56;;;;;;;13.30;6.05;;;4.80;96.30;;;;;;5029053;28;20720;-69
2024/02/13 08:58:21;;;;;;;13.88;6.03;;;4.90;96.00;;;;;;5044104;28;20505;-69
2024/02/13 09:00:46;;;;;;;12.80;6.90;;;5.00;95.00;;;;;;5047889;28;20119;-69
2024/02/13 09:03:12;;;;;;;13.43;6.55;;;5.10;95.30;;;;;;5052234;28;20037;-69
2024/02/13 09:05:38;;;;;;;12.82;6.70;;;5.10;95.10;;;;;;5046867;28;20043;-69
2024/02/13 09:08:05;;;;;;;17.40;8.13;;;5.10;95.30;;;;;;5047225;28;20120;-69
2024/02/13 09:10:31;;;;;;;15.68;7.63;;;5.10;94.80;;;;;;5045804;28;20358;-69
2024/02/13 09:12:56;;;;;;;14.25;7.15;;;5.10;94.80;;;;;;5045915;28;20132;-69
2024/02/13 09:15:22;;;;;;;18.13;8.48;;;5.10;94.50;;;;;;5046325;28;20057;-69
2024/02/13 09:17:48;;;;;;;16.40;8.15;;;5.10;94.90;;;;;;5047245;28;20025;-70
2024/02/13 09:20:21;;;;;;;13.13;6.30;;;5.10;94.70;;;;;;5047072;28;20033;-69
2024/02/13 09:22:47;;;;;;;16.98;8.13;;;5.10;94.60;;;;;;5045834;28;20461;-69
2024/02/13 09:25:14;;;;;;;13.88;7.40;;;5.20;94.80;;;;;;5048054;28;20037;-69
2024/02/13 09:27:40;;;;;;;19.92;10.25;;;5.20;94.80;;;;;;5044482;28;20063;-69
2024/02/13 09:30:07;;;;;;;13.05;6.82;;;5.20;94.70;;;;;;5047025;28;20136;-69
2024/02/13 09:32:35;;;;;;;16.02;7.90;;;5.20;94.60;;;;;;5046587;28;20348;-69
2024/02/13 09:35:07;;;;;;;12.05;6.00;;;5.30;94.40;;;;;;5039728;28;20049;-69
2024/02/13 09:37:39;;;;;;;11.15;5.78;;;5.20;94.50;;;;;;5028604;28;20021;-69
2024/02/13 09:40:14;;;;;;;11.88;6.05;;;5.20;94.30;;;;;;5046703;28;20071;-69
2024/02/13 09:42:44;;;;;;;14.95;7.00;;;5.20;94.30;;;;;;5043297;28;21233;-68
2024/02/13 09:45:11;;;;;;;11.43;6.05;;;5.20;93.80;;;;;;5047777;28;20513;-69
2024/02/13 09:47:38;;;;;;;9.52;5.68;;;5.20;94.00;;;;;;5043448;28;20024;-70
2024/02/13 09:50:12;;;;;;;11.65;6.05;;;5.30;94.10;;;;;;5046015;28;20025;-69
2024/02/13 09:52:49;;;;;;;12.77;5.88;;;5.30;93.50;;;;;;5040625;28;20029;-70
2024/02/13 09:55:15;;;;;;;10.70;6.13;;;5.30;93.40;;;;;;5045735;28;20112;-70
2024/02/13 09:57:41;;;;;;;12.48;5.80;;;5.30;93.50;;;;;;5042030;28;20120;-70
2024/02/13 10:00:08;;;;;;;13.32;6.65;;;5.20;93.40;;;;;;5031873;28;20135;-70
2024/02/13 10:02:38;;;;;;;10.35;4.93;;;5.20;93.70;;;;;;5042880;28;20382;-69
2024/02/13 10:05:09;;;;;;;9.45;5.20;;;5.30;93.80;;;;;;5050361;28;20327;-70
2024/02/13 10:07:37;;;;;;;9.68;4.63;;;5.30;93.90;;;;;;5051688;28;20025;-70
2024/02/13 10:10:04;;;;;;;12.13;4.93;;;5.30;93.90;;;;;;5049486;28;20032;-70
2024/02/13 10:12:29;;;;;;;9.93;5.40;;;5.20;93.60;;;;;;5039222;28;20029;-68
2024/02/13 10:14:58;;;;;;;10.57;4.85;;;5.20;93.10;;;;;;5033940;28;20046;-68
2024/02/13 10:17:23;;;;;;;11.35;5.05;;;5.20;93.30;;;;;;5039066;28;20073;-68
2024/02/13 10:19:49;;;;;;;7.15;4.50;;;5.30;93.40;;;;;;5050712;28;20033;-69
2024/02/13 10:22:16;;;;;;;9.82;5.47;;;5.30;93.50;;;;;;5045475;28;20466;-68
2024/02/13 10:24:51;;;;;;;10.63;5.20;;;5.30;93.30;;;;;;5044945;28;20033;-68
2024/02/13 10:27:18;;;;;;;8.75;5.15;;;5.40;93.50;;;;;;5044282;28;20458;-68
2024/02/13 10:29:45;;;;;;;9.52;5.40;;;5.30;93.20;;;;;;5046509;28;20329;-68
2024/02/13 10:32:10;;;;;;;11.27;5.80;;;5.30;92.90;;;;;;5045723;28;20048;-68
2024/02/13 10:34:37;;;;;;;8.18;4.97;;;5.40;92.90;;;;;;5040453;28;20348;-68
2024/02/13 10:37:08;;;;;;;11.25;5.07;;;5.30;93.20;;;;;;5047386;28;20110;-68
2024/02/13 10:39:36;;;;;;;8.63;4.53;;;5.30;93.00;;;;;;5048883;28;20021;-69
2024/02/13 10:42:07;;;;;;;9.80;5.32;;;5.40;93.10;;;;;;5045289;28;20174;-69
2024/02/13 10:44:41;;;;;;;14.75;7.32;;;5.40;92.70;;;;;;5029427;28;20066;-69
2024/02/13 10:47:10;;;;;;;12.52;6.10;;;5.50;93.00;;;;;;5047596;28;20103;-69
2024/02/13 10:49:53;;;;;;;16.42;7.85;;;5.50;92.90;;;;;;5046993;28;20424;-69
2024/02/13 10:52:21;;;;;;;10.02;5.63;;;5.60;92.80;;;;;;5044530;28;20043;-69
2024/02/13 10:54:48;;;;;;;11.20;5.82;;;5.60;93.00;;;;;;5046561;28;20040;-68
2024/02/13 10:57:17;;;;;;;11.40;6.43;;;5.70;93.10;;;;;;5046463;28;20435;-69
2024/02/13 10:59:46;;;;;;;8.68;4.63;;;5.60;93.10;;;;;;5046715;28;20501;-69
2024/02/13 11:02:14;;;;;;;10.40;6.20;;;5.70;93.20;;;;;;5047262;28;20167;-69
2024/02/13 11:04:43;;;;;;;11.38;5.38;;;5.70;92.80;;;;;;5050747;28;20118;-69
2024/02/13 11:07:14;;;;;;;10.40;6.00;;;5.70;93.00;;;;;;5046498;28;20029;-69
2024/02/13 11:09:40;;;;;;;10.85;4.90;;;5.70;92.50;;;;;;5044153;28;20466;-70
2024/02/13 11:12:06;;;;;;;9.77;5.07;;;5.80;92.50;;;;;;5047784;28;20041;-69
2024/02/13 11:14:32;;;;;;;11.93;5.85;;;5.80;92.40;;;;;;5049119;28;20039;-70
2024/02/13 11:17:00;;;;;;;9.27;4.75;;;5.90;92.30;;;;;;5046995;28;20402;-70
2024/02/13 11:19:37;;;;;;;12.75;6.30;;;5.90;92.30;;;;;;5046448;28;20025;-70
2024/02/13 11:22:04;;;;;;;10.35;5.72;;;5.90;92.20;;;;;;5050299;28;20047;-69
2024/02/13 11:24:40;;;;;;;8.52;5.05;;;5.90;92.00;;;;;;5048105;28;20033;-70
2024/02/13 11:27:06;;;;;;;10.73;5.85;;;5.90;92.00;;;;;;5048050;28;20075;-69
2024/02/13 11:29:32;;;;;;;10.23;5.30;;;5.90;91.70;;;;;;5054107;28;20029;-70
2024/02/13 11:31:58;;;;;;;11.95;4.97;;;6.00;92.10;;;;;;5051799;28;20031;-70
2024/02/13 11:34:42;;;;;;;10.10;4.88;;;6.10;92.10;;;;;;5043160;28;20140;-70
2024/02/13 11:37:18;;;;;;;9.50;4.95;;;6.20;92.30;;;;;;5041564;28;20420;-70
2024/02/13 11:39:46;;;;;;;11.65;6.10;;;6.10;91.80;;;;;;5065172;28;20032;-70
2024/02/13 11:42:18;;;;;;;10.15;5.93;;;6.10;91.60;;;;;;5054331;28;20051;-70
2024/02/13 11:44:44;;;;;;;9.75;5.15;;;6.10;91.70;;;;;;5053396;28;20028;-70
2024/02/13 11:47:10;;;;;;;10.07;5.35;;;6.30;92.10;;;;;;5047427;28;20051;-70
2024/02/13 11:49:36;;;;;;;8.82;4.70;;;6.40;91.60;;;;;;5060635;28;20370;-70
2024/02/13 11:52:02;;;;;;;8.88;5.15;;;6.30;91.30;;;;;;5055747;28;20053;-70
2024/02/13 11:54:32;;;;;;;10.40;5.35;;;6.50;91.70;;;;;;5055977;28;20093;-70
2024/02/13 11:56:58;;;;;;;8.60;5.40;;;6.50;90.80;;;;;;5048127;28;20363;-70
2024/02/13 11:59:24;;;;;;;9.38;4.97;;;6.40;91.10;;;;;;5053657;28;20179;-70
2024/02/13 12:01:49;;;;;;;9.27;4.53;;;6.30;90.70;;;;;;5050058;28;20152;-70
2024/02/13 12:04:16;;;;;;;10.77;5.25;;;6.40;91.40;;;;;;5051781;28;20467;-70
2024/02/13 12:06:45;;;;;;;11.60;4.95;;;6.40;91.20;;;;;;5050234;28;20354;-69
2024/02/13 12:09:13;;;;;;;8.98;5.15;;;6.40;91.10;;;;;;5030340;28;20123;-70
2024/02/13 12:11:39;;;;;;;10.43;5.57;;;6.50;91.10;;;;;;5046223;28;20101;-70
2024/02/13 12:14:05;;;;;;;8.82;4.47;;;6.50;90.60;;;;;;5050377;28;20026;-70
2024/02/13 12:16:35;;;;;;;11.50;5.18;;;6.60;91.10;;;;;;5048301;28;20055;-69
2024/02/13 12:19:02;;;;;;;9.63;5.35;;;6.60;91.00;;;;;;5054827;28;20115;-69
2024/02/13 12:21:27;;;;;;;8.93;4.60;;;6.60;91.20;;;;;;5050066;28;20078;-70
2024/02/13 12:23:53;;;;;;;9.20;4.32;;;6.60;91.00;;;;;;5054056;28;20118;-70
2024/02/13 12:26:19;;;;;;;7.60;4.18;;;6.70;91.10;;;;;;5048103;28;20052;-69
2024/02/13 12:29:14;;;;;;;8.23;4.45;;;6.70;90.60;;;;;;5036889;28;20033;-69
2024/02/13 12:31:40;;;;;;;10.43;4.82;;;6.80;90.70;;;;;;5054947;28;20059;-70
2024/02/13 12:34:06;;;;;;;8.77;4.22;;;6.70;90.40;;;;;;5045218;28;20451;-70
2024/02/13 12:36:33;;;;;;;6.88;3.90;;;6.80;90.80;;;;;;5052345;28;20044;-69
2024/02/13 12:39:08;;;;;;;7.30;4.40;;;6.80;90.50;;;;;;5037931;28;20123;-69
2024/02/13 12:41:36;;;;;;;8.60;4.80;;;6.70;90.40;;;;;;5049331;28;20036;-70
2024/02/13 12:44:02;;;;;;;7.38;4.07;;;6.70;90.60;;;;;;5056045;28;20047;-70
2024/02/13 12:46:34;;;;;;;7.07;4.57;;;6.70;90.30;;;;;;5051271;28;20029;-70
2024/02/13 12:49:01;;;;;;;9.52;4.55;;;6.70;90.80;;;;;;5056246;28;20040;-70
2024/02/13 12:51:27;;;;;;;9.77;4.22;;;6.60;90.40;;;;;;5049730;28;20048;-69
2024/02/13 12:53:53;;;;;;;12.48;4.53;;;6.60;90.60;;;;;;5056036;28;20107;-69
2024/02/13 12:56:19;;;;;;;10.05;4.63;;;6.70;90.80;;;;;;5045936;28;20420;-70